createdAt,value
2023-05-26T00:02:31.125Z,62.75
2023-05-26T00:05:36.683Z,62.64
2023-05-26T00:08:40.088Z,62.60
2023-05-26T00:11:42.506Z,62.91
2023-05-26T00:14:44.964Z,62.55
2023-05-26T00:17:48.500Z,62.68
2023-05-26T00:20:50.985Z,62.98
2023-05-26T00:23:53.393Z,63.01
2023-05-26T00:26:55.857Z,63.10
2023-05-26T00:29:59.407Z,63.26
2023-05-26T00:33:02.100Z,63.02
2023-05-26T00:36:04.705Z,63.01
2023-05-26T00:39:07.279Z,63.03
2023-05-26T00:42:12.647Z,63.33
2023-05-26T00:45:15.283Z,63.12
2023-05-26T00:48:19.017Z,63.04
2023-05-26T00:51:22.081Z,63.02
2023-05-26T00:54:24.790Z,63.20
2023-05-26T00:57:29.116Z,63.38
2023-05-26T01:00:32.106Z,63.33
2023-05-26T01:03:35.380Z,63.35
2023-05-26T01:06:43.126Z,63.17
2023-05-26T01:09:45.693Z,63.39
2023-05-26T01:12:58.359Z,63.35
2023-05-26T01:16:08.090Z,63.33
2023-05-26T01:19:35.997Z,63.46
2023-05-26T01:22:49.306Z,63.54
2023-05-26T01:26:13.692Z,63.31
2023-05-26T01:29:17.586Z,63.36
2023-05-26T01:32:21.398Z,63.56
2023-05-26T01:35:24.924Z,63.63
2023-05-26T01:38:27.461Z,63.43
2023-05-26T01:41:44.219Z,63.38
2023-05-26T01:44:52.220Z,63.52
2023-05-26T01:47:57.131Z,63.79
2023-05-26T01:51:02.406Z,63.52
2023-05-26T01:54:09.925Z,63.85
2023-05-26T01:57:14.111Z,63.28
2023-05-26T02:00:25.147Z,63.56
2023-05-26T02:03:27.806Z,63.66
2023-05-26T02:06:30.566Z,63.79
2023-05-26T02:09:33.437Z,63.67
2023-05-26T02:12:37.613Z,63.69
2023-05-26T02:15:40.450Z,63.66
2023-05-26T02:18:47.034Z,63.55
2023-05-26T02:21:49.977Z,63.50
2023-05-26T02:24:55.847Z,63.81
2023-05-26T02:27:58.236Z,63.73
2023-05-26T02:31:00.779Z,63.67
2023-05-26T02:34:05.880Z,63.67
2023-05-26T02:37:08.382Z,63.80
2023-05-26T02:40:11.264Z,63.69
2023-05-26T02:43:13.760Z,63.81
2023-05-26T02:46:16.414Z,63.83
2023-05-26T02:49:22.252Z,63.73
2023-05-26T02:52:24.870Z,63.62
2023-05-26T02:58:29.697Z,63.89
2023-05-26T03:01:33.337Z,63.53
2023-05-26T03:04:36.004Z,63.60
2023-05-26T03:07:38.380Z,63.54
2023-05-26T03:10:41.223Z,63.61
2023-05-26T03:13:44.532Z,63.55
2023-05-26T03:16:47.364Z,63.79
2023-05-26T03:19:49.831Z,63.72
2023-05-26T03:22:53.087Z,64.07
2023-05-26T03:25:57.259Z,63.66
2023-05-26T03:29:01.056Z,63.78
2023-05-26T03:32:03.607Z,63.69
2023-05-26T03:35:07.210Z,63.77
2023-05-26T03:38:09.615Z,64.02
2023-05-26T03:41:14.279Z,63.64
2023-05-26T03:44:27.728Z,63.88
2023-05-26T03:47:30.193Z,63.45
2023-05-26T03:50:32.672Z,63.63
2023-05-26T03:53:35.360Z,63.78
2023-05-26T03:56:39.416Z,63.41
2023-05-26T03:59:42.240Z,63.65
2023-05-26T04:02:45.450Z,63.36
2023-05-26T04:05:48.843Z,63.33
2023-05-26T04:08:51.261Z,63.64
2023-05-26T04:11:53.766Z,63.47
2023-05-26T04:14:56.408Z,63.23
2023-05-26T04:17:58.913Z,63.55
2023-05-26T04:21:01.540Z,63.74
2023-05-26T04:24:04.490Z,64.02
2023-05-26T04:27:08.934Z,64.02
2023-05-26T04:30:40.330Z,64.02
2023-05-26T04:33:51.802Z,64.28
2023-05-26T04:37:27.683Z,64.23
2023-05-26T04:40:33.298Z,64.17
2023-05-26T04:43:36.244Z,64.43
2023-05-26T04:46:39.229Z,64.14
2023-05-26T04:49:43.650Z,64.16
2023-05-26T04:52:46.400Z,64.08
2023-05-26T04:55:49.008Z,64.05
2023-05-26T04:58:53.309Z,63.96
2023-05-26T05:01:55.973Z,63.79
2023-05-26T05:05:09.354Z,63.71
2023-05-26T05:08:11.865Z,63.43
2023-05-26T05:11:14.459Z,63.26
2023-05-26T05:14:18.952Z,63.13
2023-05-26T05:17:22.696Z,62.41
2023-05-26T05:20:28.277Z,62.54
2023-05-26T05:23:35.396Z,62.14
2023-05-26T05:26:40.421Z,61.88
2023-05-26T05:29:44.007Z,61.72
2023-05-26T05:32:46.820Z,61.39
2023-05-26T05:35:54.216Z,60.92
2023-05-26T05:38:56.902Z,61.45
2023-05-26T05:41:59.552Z,60.90
2023-05-26T05:45:03.448Z,60.82
2023-05-26T05:48:26.340Z,60.43
2023-05-26T05:51:35.276Z,60.00
2023-05-26T05:54:38.183Z,60.18
2023-05-26T05:57:44.287Z,60.17
2023-05-26T06:00:47.964Z,59.90
2023-05-26T06:03:54.799Z,59.44
2023-05-26T06:06:58.629Z,59.28
2023-05-26T06:10:02.150Z,59.24
2023-05-26T06:13:05.090Z,58.62
2023-05-26T06:16:08.346Z,58.39
2023-05-26T06:19:11.195Z,58.08
2023-05-26T06:22:14.906Z,57.49
2023-05-26T06:25:17.664Z,56.51
2023-05-26T06:28:20.514Z,55.35
2023-05-26T06:31:23.930Z,54.49
2023-05-26T06:34:33.762Z,53.82
2023-05-26T06:37:36.275Z,53.18
2023-05-26T06:40:38.796Z,53.20
2023-05-26T06:43:42.131Z,52.92
2023-05-26T06:46:45.562Z,53.21
2023-05-26T06:50:02.705Z,53.04
2023-05-26T06:53:06.579Z,52.07
2023-05-26T06:56:09.152Z,51.24
2023-05-26T06:59:13.598Z,50.99
2023-05-26T07:02:16.249Z,50.69
2023-05-26T07:05:19.466Z,50.42
2023-05-26T07:08:25.224Z,49.96
2023-05-26T07:11:30.152Z,49.58
2023-05-26T07:14:37.899Z,48.75
2023-05-26T07:17:41.150Z,48.84
2023-05-26T07:20:43.968Z,48.42
2023-05-26T07:23:49.787Z,48.11
2023-05-26T07:26:54.255Z,48.17
2023-05-26T07:29:56.708Z,47.76
2023-05-26T07:32:59.270Z,47.84
2023-05-26T07:36:02.110Z,47.56
2023-05-26T07:39:04.980Z,47.86
2023-05-26T07:42:07.829Z,46.18
2023-05-26T07:45:11.114Z,45.62
2023-05-26T07:48:16.316Z,45.03
2023-05-26T07:51:18.908Z,46.82
2023-05-26T07:54:21.359Z,46.84
2023-05-26T07:57:30.145Z,47.05
2023-05-26T08:00:33.167Z,46.93
2023-05-26T08:03:35.956Z,47.11
2023-05-26T08:06:39.779Z,47.70
2023-05-26T08:09:42.474Z,47.25
2023-05-26T08:12:45.341Z,47.71
2023-05-26T08:15:48.237Z,47.96
2023-05-26T08:18:50.977Z,48.05
2023-05-26T08:21:53.889Z,48.78
2023-05-26T08:24:56.595Z,49.00
2023-05-26T08:27:59.015Z,49.16
2023-05-26T08:31:01.709Z,49.61
2023-05-26T08:34:04.178Z,49.52
2023-05-26T08:37:06.599Z,50.18
2023-05-26T08:40:11.013Z,50.22
2023-05-26T08:43:15.479Z,50.85
2023-05-26T08:46:18.219Z,50.65
2023-05-26T08:49:22.013Z,50.51
2023-05-26T08:52:24.718Z,50.98
2023-05-26T08:55:28.440Z,51.06
2023-05-26T08:58:34.929Z,51.19
2023-05-26T09:01:38.062Z,50.59
2023-05-26T09:04:40.724Z,51.71
2023-05-26T09:07:43.122Z,51.81
2023-05-26T09:10:45.895Z,52.23
2023-05-26T09:13:58.556Z,52.44
2023-05-26T09:17:01.202Z,51.92
2023-05-26T09:20:07.200Z,51.66
2023-05-26T09:23:10.313Z,51.46
2023-05-26T09:26:12.779Z,50.92
2023-05-26T09:29:16.187Z,51.14
2023-05-26T09:32:18.776Z,51.16
2023-05-26T09:35:23.047Z,50.75
2023-05-26T09:38:25.607Z,50.07
2023-05-26T09:41:41.108Z,49.73
2023-05-26T09:44:51.744Z,50.01
2023-05-26T09:47:57.650Z,50.12
2023-05-26T09:51:00.219Z,50.38
2023-05-26T09:54:03.475Z,50.17
2023-05-26T09:57:12.874Z,50.79
2023-05-26T10:00:19.238Z,50.62
2023-05-26T10:03:22.697Z,50.75
2023-05-26T10:06:25.651Z,50.56
2023-05-26T10:09:33.337Z,50.28
2023-05-26T10:12:36.648Z,49.76
2023-05-26T10:15:39.337Z,49.84
2023-05-26T10:18:41.786Z,49.61
2023-05-26T10:21:49.438Z,49.84
2023-05-26T10:25:03.252Z,49.98
2023-05-26T10:28:28.868Z,49.57
2023-05-26T10:31:33.077Z,50.20
2023-05-26T10:34:40.503Z,50.34
2023-05-26T10:37:49.407Z,50.73
2023-05-26T10:40:52.453Z,51.04
2023-05-26T10:43:55.462Z,51.21
2023-05-26T10:47:05.849Z,50.99
2023-05-26T10:50:11.131Z,50.82
2023-05-26T10:53:22.160Z,51.24
2023-05-26T10:56:42.008Z,51.59
2023-05-26T10:59:44.454Z,52.03
2023-05-26T11:02:47.153Z,52.26
2023-05-26T11:05:58.224Z,51.70
2023-05-26T11:09:03.888Z,50.44
2023-05-26T11:12:07.689Z,51.88
2023-05-26T11:15:27.340Z,50.64
2023-05-26T11:18:31.154Z,50.17
2023-05-26T11:21:35.904Z,50.63
2023-05-26T11:24:38.421Z,50.96
2023-05-26T11:27:46.763Z,51.10
2023-05-26T11:30:49.288Z,50.98
2023-05-26T11:33:51.690Z,50.92
2023-05-26T11:36:55.246Z,49.90
2023-05-26T11:39:59.011Z,48.70
2023-05-26T11:43:01.485Z,48.60
2023-05-26T11:46:07.326Z,49.51
2023-05-26T11:49:17.046Z,49.68
2023-05-26T11:52:24.289Z,49.50
2023-05-26T11:55:26.795Z,50.00
2023-05-26T11:58:29.301Z,49.81
2023-05-26T12:01:32.784Z,50.34
2023-05-26T12:04:35.426Z,50.67
2023-05-26T12:07:37.957Z,50.65
2023-05-26T12:10:43.524Z,50.90
2023-05-26T12:13:46.533Z,50.79
2023-05-26T12:16:54.948Z,51.30
2023-05-26T12:19:57.524Z,51.62
2023-05-26T12:23:03.677Z,51.65
2023-05-26T12:26:21.398Z,51.76
2023-05-26T12:29:23.805Z,51.81
2023-05-26T12:32:26.250Z,52.20
2023-05-26T12:35:28.689Z,51.51
2023-05-26T12:38:43.469Z,51.52
2023-05-26T12:41:46.898Z,52.17
2023-05-26T12:44:49.348Z,52.17
2023-05-26T12:47:51.888Z,52.47
2023-05-26T12:50:54.345Z,52.41
2023-05-26T12:53:56.807Z,51.89
2023-05-26T12:56:59.270Z,52.57
2023-05-26T13:00:01.715Z,52.10
2023-05-26T13:03:05.063Z,52.25
2023-05-26T13:06:10.226Z,52.43
2023-05-26T13:09:13.721Z,52.54
2023-05-26T13:12:16.176Z,52.25
2023-05-26T13:15:19.569Z,52.61
2023-05-26T13:18:26.073Z,52.86
2023-05-26T13:21:29.228Z,52.59
2023-05-26T13:24:31.655Z,52.56
2023-05-26T13:27:34.095Z,52.69
2023-05-26T13:30:36.501Z,52.75
2023-05-26T13:33:38.881Z,52.46
2023-05-26T13:36:41.612Z,52.51
2023-05-26T13:39:44.103Z,53.05
2023-05-26T13:42:47.838Z,52.76
2023-05-26T13:45:54.494Z,52.66
2023-05-26T13:48:57.424Z,53.18
2023-05-26T13:52:05.253Z,52.91
2023-05-26T13:55:08.457Z,53.02
2023-05-26T13:58:19.979Z,53.10
2023-05-26T14:01:36.118Z,53.32
2023-05-26T14:04:43.711Z,53.44
2023-05-26T14:07:47.115Z,53.47
2023-05-26T14:10:52.083Z,53.52
2023-05-26T14:13:55.390Z,53.69
2023-05-26T14:16:58.077Z,53.74
2023-05-26T14:20:07.252Z,53.81
2023-05-26T14:23:10.906Z,53.85
2023-05-26T14:26:13.868Z,53.67
2023-05-26T14:29:16.407Z,53.88
2023-05-26T14:32:18.871Z,54.06
2023-05-26T14:35:21.270Z,54.29
2023-05-26T14:38:23.772Z,54.31
2023-05-26T14:41:27.163Z,54.71
2023-05-26T14:44:29.626Z,54.50
2023-05-26T14:47:32.103Z,54.73
2023-05-26T14:50:34.626Z,54.80
2023-05-26T14:53:37.252Z,54.87
2023-05-26T14:56:39.902Z,54.76
2023-05-26T14:59:42.472Z,54.95
2023-05-26T15:02:45.974Z,54.65
2023-05-26T15:05:48.712Z,54.91
2023-05-26T15:08:51.272Z,54.99
2023-05-26T15:11:53.653Z,55.03
2023-05-26T15:14:57.450Z,55.02
2023-05-26T15:17:59.859Z,55.17
2023-05-26T15:21:03.887Z,55.06
2023-05-26T15:24:07.947Z,54.98
2023-05-26T15:27:11.365Z,54.99
2023-05-26T15:33:22.532Z,55.25
2023-05-26T15:36:26.213Z,55.30
2023-05-26T15:39:28.936Z,55.30
2023-05-26T15:42:31.392Z,55.51
2023-05-26T15:45:33.887Z,55.32
2023-05-26T15:48:36.695Z,55.34
2023-05-26T15:51:39.204Z,55.29
2023-05-26T15:54:41.771Z,55.49
2023-05-26T15:57:44.203Z,55.69
2023-05-26T16:00:46.704Z,55.42
2023-05-26T16:03:49.328Z,55.29
2023-05-26T16:06:51.866Z,55.44
2023-05-26T16:09:54.343Z,55.39
2023-05-26T16:12:56.801Z,55.61
2023-05-26T16:16:00.630Z,55.35
2023-05-26T16:19:03.134Z,55.57
2023-05-26T16:22:05.576Z,55.58
2023-05-26T16:25:08.560Z,55.63
2023-05-26T16:28:10.988Z,55.49
2023-05-26T16:31:13.662Z,55.76
2023-05-26T16:34:16.281Z,55.83
2023-05-26T16:37:19.124Z,55.79
2023-05-26T16:40:21.539Z,55.57
2023-05-26T16:46:34.308Z,55.72
2023-05-26T16:49:36.715Z,55.72
2023-05-26T16:52:39.097Z,55.86
2023-05-26T16:55:41.515Z,55.90
2023-05-26T16:58:43.964Z,56.02
2023-05-26T17:01:46.464Z,55.64
2023-05-26T17:04:48.864Z,56.06
2023-05-26T17:07:51.522Z,55.78
2023-05-26T17:10:56.165Z,56.04
2023-05-26T17:13:58.842Z,56.01
2023-05-26T17:17:04.608Z,55.87
2023-05-26T17:20:08.510Z,55.83
2023-05-26T17:23:12.623Z,56.00
2023-05-26T17:26:15.100Z,56.03
2023-05-26T17:29:17.673Z,56.00
2023-05-26T17:32:20.108Z,56.27
2023-05-26T17:35:23.047Z,56.30
2023-05-26T17:38:25.572Z,56.18
2023-05-26T17:41:27.933Z,56.08
2023-05-26T17:44:30.457Z,56.31
2023-05-26T17:47:32.893Z,56.16
2023-05-26T17:50:36.018Z,56.15
2023-05-26T17:53:38.617Z,56.29
2023-05-26T17:56:41.706Z,56.34
2023-05-26T17:59:44.172Z,56.38
2023-05-26T18:02:46.654Z,56.48
2023-05-26T18:05:49.171Z,56.31
2023-05-26T18:08:53.685Z,56.13
2023-05-26T18:11:56.047Z,56.49
2023-05-26T18:14:58.427Z,56.44
2023-05-26T18:18:01.348Z,56.24
2023-05-26T18:21:04.157Z,56.52
2023-05-26T18:24:07.259Z,56.64
2023-05-26T18:27:09.817Z,56.55
2023-05-26T18:30:15.846Z,56.49
2023-05-26T18:33:18.317Z,56.65
2023-05-26T18:36:20.870Z,56.65
2023-05-26T18:39:23.328Z,56.75
2023-05-26T18:42:25.720Z,57.02
2023-05-26T18:45:28.099Z,56.93
2023-05-26T18:48:30.479Z,56.87
2023-05-26T18:51:33.852Z,56.84
2023-05-26T18:54:36.397Z,57.07
2023-05-26T18:57:38.831Z,57.11
2023-05-26T19:00:42.772Z,57.18
2023-05-26T19:03:45.276Z,57.51
2023-05-26T19:06:47.800Z,57.48
2023-05-26T19:09:50.258Z,57.34
2023-05-26T19:12:52.678Z,57.38
2023-05-26T19:15:55.126Z,57.44
2023-05-26T19:18:58.098Z,57.38
2023-05-26T19:22:00.490Z,57.60
2023-05-26T19:25:04.469Z,57.87
2023-05-26T19:28:06.893Z,57.76
2023-05-26T19:31:09.473Z,57.77
2023-05-26T19:34:12.972Z,57.94
2023-05-26T19:37:15.508Z,58.11
2023-05-26T19:40:17.896Z,58.07
2023-05-26T19:43:21.335Z,58.01
2023-05-26T19:46:24.011Z,58.23
2023-05-26T19:49:29.210Z,58.30
2023-05-26T19:52:31.692Z,58.29
2023-05-26T19:55:34.105Z,58.50
2023-05-26T19:58:36.517Z,58.59
2023-05-26T20:01:39.801Z,58.38
2023-05-26T20:04:42.641Z,58.66
2023-05-26T20:07:45.079Z,58.57
2023-05-26T20:10:47.724Z,58.93
2023-05-26T20:13:50.105Z,58.88
2023-05-26T20:16:52.882Z,58.95
2023-05-26T20:20:11.964Z,58.82
2023-05-26T20:23:16.292Z,58.98
2023-05-26T20:26:18.732Z,58.93
2023-05-26T20:29:22.176Z,59.01
2023-05-26T20:32:25.400Z,59.07
2023-05-26T20:35:27.842Z,59.00
2023-05-26T20:38:30.876Z,58.93
2023-05-26T20:41:33.258Z,59.23
2023-05-26T20:44:36.108Z,59.08
2023-05-26T20:47:38.584Z,59.06
2023-05-26T20:50:41.317Z,59.16
2023-05-26T20:53:47.031Z,59.33
2023-05-26T20:56:49.458Z,59.09
2023-05-26T20:59:51.890Z,59.23
2023-05-26T21:02:54.389Z,59.30
2023-05-26T21:05:56.980Z,59.48
2023-05-26T21:08:59.432Z,59.48
2023-05-26T21:12:03.018Z,59.54
2023-05-26T21:15:05.958Z,59.39
2023-05-26T21:18:08.468Z,59.45
2023-05-26T21:21:11.174Z,59.58
2023-05-26T21:24:13.606Z,59.76
2023-05-26T21:27:16.337Z,59.63
2023-05-26T21:30:20.679Z,59.61
2023-05-26T21:33:23.428Z,59.67
2023-05-26T21:36:26.002Z,59.45
2023-05-26T21:39:28.483Z,59.60
2023-05-26T21:42:30.892Z,59.61
2023-05-26T21:45:33.755Z,59.38
2023-05-26T21:48:36.174Z,59.26
2023-05-26T21:51:38.670Z,59.58
2023-05-26T21:54:42.894Z,59.76
2023-05-26T21:57:45.794Z,59.60
2023-05-26T22:00:48.317Z,59.54
2023-05-26T22:03:51.156Z,60.01
2023-05-26T22:06:53.649Z,59.94
2023-05-26T22:09:56.089Z,59.66
2023-05-26T22:12:58.664Z,60.00
2023-05-26T22:16:01.569Z,59.84
2023-05-26T22:19:04.236Z,59.81
2023-05-26T22:22:06.705Z,59.71
2023-05-26T22:25:09.655Z,59.87
2023-05-26T22:28:12.311Z,59.95
2023-05-26T22:31:14.866Z,59.92
2023-05-26T22:34:17.312Z,59.86
2023-05-26T22:37:19.801Z,59.68
2023-05-26T22:40:22.312Z,59.86
2023-05-26T22:43:24.743Z,59.73
2023-05-26T22:46:27.289Z,59.79
2023-05-26T22:49:29.700Z,59.92
2023-05-26T22:52:33.092Z,59.83
2023-05-26T22:55:47.015Z,60.02
2023-05-26T22:58:53.801Z,59.98
2023-05-26T23:01:56.193Z,60.10
2023-05-26T23:04:58.667Z,59.95
2023-05-26T23:08:01.241Z,60.05
2023-05-26T23:11:04.000Z,60.14
2023-05-26T23:14:06.406Z,59.91
2023-05-26T23:17:08.913Z,60.12
2023-05-26T23:20:11.765Z,60.11
2023-05-26T23:23:14.400Z,60.07
2023-05-26T23:26:16.855Z,60.13
2023-05-26T23:29:26.945Z,60.15
2023-05-26T23:32:29.412Z,60.07
2023-05-26T23:35:31.849Z,60.28
2023-05-26T23:38:34.297Z,60.08
2023-05-26T23:41:36.792Z,60.28
2023-05-26T23:44:39.422Z,60.32
2023-05-26T23:47:41.979Z,60.51
2023-05-26T23:50:44.465Z,60.17
2023-05-26T23:53:47.014Z,60.27
2023-05-26T23:56:49.423Z,60.26
2023-05-26T23:59:51.923Z,60.32
